Time;durP1;ratioP1;P1;durP2;ratioP2;P2;SDS_P1;SDS_P2;PMS_P1;PMS_P2;Temp;Humidity;BMP_temperature;BMP_pressure;BME280_temperature;BME280_humidity;BME280_pressure;Samples;Min_cycle;Max_cycle;Signal;HPM_P1;HPM_P2
2022/04/01 00:01:40;;;;;;;9.60;7.23;;;6.50;99.90;;;;;;5008822;28;20021;-77
2022/04/01 00:04:06;;;;;;;9.43;7.17;;;6.50;99.90;;;;;;5029224;28;20467;-77
2022/04/01 00:06:32;;;;;;;9.33;7.20;;;6.40;99.90;;;;;;5014010;28;20037;-77
2022/04/01 00:08:57;;;;;;;9.57;6.97;;;6.40;99.90;;;;;;5014541;28;20036;-77
2022/04/01 00:11:23;;;;;;;7.97;6.60;;;6.40;99.90;;;;;;5014019;28;20041;-78
2022/04/01 00:13:48;;;;;;;9.67;7.27;;;6.40;99.90;;;;;;5014012;28;20526;-77
2022/04/01 00:16:16;;;;;;;9.90;7.17;;;6.30;99.90;;;;;;5014064;28;20030;-77
2022/04/01 00:18:41;;;;;;;9.70;7.07;;;6.30;99.90;;;;;;5014280;28;20077;-78
2022/04/01 00:21:07;;;;;;;11.13;7.80;;;6.30;99.90;;;;;;5014142;28;20026;-78
2022/04/01 00:23:33;;;;;;;8.40;6.87;;;6.20;99.90;;;;;;5029063;28;20045;-78
2022/04/01 00:25:58;;;;;;;7.27;5.90;;;6.20;99.90;;;;;;5012871;28;20451;-77
2022/04/01 00:28:24;;;;;;;7.70;6.60;;;6.20;99.90;;;;;;5025951;28;20049;-77
2022/04/01 00:30:50;;;;;;;7.50;6.50;;;6.20;99.90;;;;;;4994633;28;20034;-77
2022/04/01 00:33:16;;;;;;;7.90;6.63;;;6.20;99.90;;;;;;4993009;28;20504;-78
2022/04/01 00:35:42;;;;;;;8.77;6.70;;;6.10;99.90;;;;;;4994480;28;20072;-78
2022/04/01 00:38:08;;;;;;;8.03;6.90;;;6.10;99.90;;;;;;4994413;28;20030;-77
2022/04/01 00:40:35;;;;;;;8.93;7.60;;;6.10;99.90;;;;;;4994290;28;20023;-78
2022/04/01 00:43:01;;;;;;;8.43;6.93;;;6.10;99.90;;;;;;4994258;28;20022;-78
2022/04/01 00:45:27;;;;;;;10.23;7.07;;;6.10;99.90;;;;;;4998567;28;20037;-77
2022/04/01 00:47:54;;;;;;;7.77;6.47;;;6.00;99.90;;;;;;5013807;28;20026;-78
2022/04/01 00:50:19;;;;;;;11.43;7.10;;;6.00;99.90;;;;;;5013467;28;20029;-78
2022/04/01 00:52:45;;;;;;;7.80;6.20;;;5.90;99.90;;;;;;5010908;28;20046;-78
2022/04/01 00:55:11;;;;;;;8.00;6.53;;;5.90;99.90;;;;;;5013095;28;20064;-78
2022/04/01 00:57:37;;;;;;;9.73;6.20;;;5.90;99.90;;;;;;5005976;28;20111;-78
2022/04/01 01:00:06;;;;;;;7.77;6.07;;;5.90;99.90;;;;;;5018662;28;20026;-78
2022/04/01 01:02:34;;;;;;;8.87;6.60;;;5.90;99.90;;;;;;5011625;28;20054;-78
2022/04/01 01:05:00;;;;;;;8.60;6.60;;;5.80;99.90;;;;;;5012705;28;20028;-77
2022/04/01 01:07:26;;;;;;;9.07;7.13;;;5.80;99.90;;;;;;5012639;28;20080;-78
2022/04/01 01:09:52;;;;;;;7.53;6.10;;;5.80;99.90;;;;;;4993295;28;20054;-78
2022/04/01 01:12:19;;;;;;;7.90;6.60;;;5.80;99.90;;;;;;4993336;28;20031;-78
2022/04/01 01:14:44;;;;;;;8.97;6.97;;;5.70;99.90;;;;;;4992934;28;20089;-78
2022/04/01 01:17:12;;;;;;;9.10;6.97;;;5.70;99.90;;;;;;5007802;28;20027;-77
2022/04/01 01:19:39;;;;;;;8.17;6.40;;;5.70;99.90;;;;;;5012443;28;20080;-78
2022/04/01 01:22:06;;;;;;;9.07;6.87;;;5.70;99.90;;;;;;5013070;28;20028;-77
2022/04/01 01:24:37;;;;;;;8.67;7.10;;;5.70;99.90;;;;;;5012804;28;20026;-78
2022/04/01 01:27:06;;;;;;;10.10;6.63;;;5.70;99.90;;;;;;5013093;28;20033;-77
2022/04/01 01:29:33;;;;;;;8.80;6.97;;;5.60;99.90;;;;;;5012929;28;20034;-78
2022/04/01 01:32:00;;;;;;;9.10;6.97;;;5.60;99.90;;;;;;5012688;28;20484;-78
2022/04/01 01:34:28;;;;;;;9.73;7.20;;;5.60;99.90;;;;;;5011469;28;20053;-78
2022/04/01 01:36:54;;;;;;;10.43;7.53;;;5.60;99.90;;;;;;5012436;28;20025;-78
2022/04/01 01:39:21;;;;;;;13.03;8.07;;;5.60;99.90;;;;;;5011371;28;20373;-78
2022/04/01 01:41:49;;;;;;;9.07;7.07;;;5.60;99.90;;;;;;5011696;28;20026;-78
2022/04/01 01:44:16;;;;;;;10.50;7.60;;;5.60;99.90;;;;;;5013080;28;20387;-78
2022/04/01 01:46:42;;;;;;;11.07;7.77;;;5.60;99.90;;;;;;5013022;28;20371;-78
2022/04/01 01:49:08;;;;;;;11.27;7.63;;;5.70;99.90;;;;;;5011778;28;20036;-78
2022/04/01 01:57:04;;;;;;;12.40;8.33;;;5.70;99.90;;;;;;5012843;28;20087;-78
2022/04/01 01:59:29;;;;;;;10.90;8.17;;;5.70;99.90;;;;;;5027328;28;20049;-78
2022/04/01 02:01:55;;;;;;;12.00;7.47;;;5.70;99.90;;;;;;5012513;28;20426;-78
2022/04/01 02:04:24;;;;;;;12.07;8.37;;;5.60;99.90;;;;;;5011192;28;20156;-78
2022/04/01 02:06:50;;;;;;;11.60;8.10;;;5.60;99.90;;;;;;5012509;28;20030;-78
2022/04/01 02:09:16;;;;;;;11.23;8.57;;;5.60;99.90;;;;;;5012190;28;20513;-78
2022/04/01 02:11:43;;;;;;;12.27;9.33;;;5.60;99.90;;;;;;5012071;28;20025;-78
2022/04/01 02:14:11;;;;;;;11.97;8.63;;;5.60;99.90;;;;;;5012451;28;20100;-78
2022/04/01 02:16:38;;;;;;;9.33;6.53;;;5.60;99.90;;;;;;5012320;28;20092;-78
2022/04/01 02:19:03;;;;;;;8.80;6.20;;;5.60;99.90;;;;;;5022374;28;20424;-78
2022/04/01 02:21:30;;;;;;;9.93;6.57;;;5.50;99.90;;;;;;5032079;28;20032;-78
2022/04/01 02:23:56;;;;;;;7.13;5.50;;;5.40;99.90;;;;;;5027692;28;20044;-78
2022/04/01 02:26:22;;;;;;;7.93;5.17;;;5.40;99.90;;;;;;5011963;28;20097;-78
2022/04/01 02:28:48;;;;;;;7.23;5.40;;;5.30;99.90;;;;;;5012106;28;20037;-78
2022/04/01 02:31:14;;;;;;;7.57;5.23;;;5.30;99.90;;;;;;5010976;28;20188;-78
2022/04/01 02:33:42;;;;;;;6.70;4.90;;;5.20;99.90;;;;;;5027711;28;20487;-78
2022/04/01 02:36:12;;;;;;;6.57;4.30;;;5.10;99.90;;;;;;5012115;28;20022;-78
2022/04/01 02:38:40;;;;;;;6.10;4.47;;;5.10;99.90;;;;;;5012194;28;20069;-78
2022/04/01 02:41:07;;;;;;;6.50;4.57;;;5.00;99.90;;;;;;5027548;28;20030;-78
2022/04/01 02:43:34;;;;;;;6.10;4.90;;;5.00;99.90;;;;;;5012290;28;20030;-78
2022/04/01 02:45:59;;;;;;;4.33;3.87;;;4.90;99.90;;;;;;5010870;28;20037;-79
2022/04/01 02:48:26;;;;;;;5.17;3.97;;;4.90;99.90;;;;;;5011367;28;20386;-78
2022/04/01 02:50:52;;;;;;;5.97;5.20;;;4.90;99.90;;;;;;5015983;28;20030;-78
2022/04/01 02:53:17;;;;;;;4.53;3.97;;;4.80;99.90;;;;;;5015873;28;20574;-78
2022/04/01 02:55:44;;;;;;;4.87;3.70;;;4.80;99.90;;;;;;5015919;28;20057;-78
2022/04/01 02:58:10;;;;;;;6.57;4.50;;;4.90;99.90;;;;;;5014475;28;20041;-78
2022/04/01 03:00:37;;;;;;;4.33;3.80;;;4.80;99.90;;;;;;5015711;28;20038;-78
2022/04/01 03:03:07;;;;;;;3.80;3.30;;;4.70;99.90;;;;;;5015943;28;20030;-78
2022/04/01 03:05:33;;;;;;;4.30;3.33;;;4.70;99.90;;;;;;5015974;28;20018;-78
2022/04/01 03:08:00;;;;;;;4.87;3.60;;;4.70;99.90;;;;;;5015886;28;20022;-78
2022/04/01 03:10:26;;;;;;;5.33;4.10;;;4.60;99.90;;;;;;5016177;28;20026;-78
2022/04/01 03:12:52;;;;;;;4.30;3.63;;;4.50;99.90;;;;;;5015814;28;20018;-78
2022/04/01 03:15:19;;;;;;;4.27;3.60;;;4.60;99.90;;;;;;5015487;28;20112;-78
2022/04/01 03:17:45;;;;;;;6.13;4.07;;;4.50;99.90;;;;;;5015154;28;20052;-78
2022/04/01 03:20:13;;;;;;;4.80;4.00;;;4.50;99.90;;;;;;5013514;28;20022;-78
2022/04/01 03:22:40;;;;;;;4.90;4.17;;;4.50;99.90;;;;;;5013998;28;20033;-78
2022/04/01 03:25:13;;;;;;;5.17;4.17;;;4.40;99.90;;;;;;5015480;28;20045;-78
2022/04/01 03:27:39;;;;;;;4.73;4.23;;;4.40;99.90;;;;;;5015115;28;20022;-78
2022/04/01 03:30:09;;;;;;;5.80;4.00;;;4.40;99.90;;;;;;5014923;28;20018;-78
2022/04/01 03:32:38;;;;;;;4.70;4.20;;;4.40;99.90;;;;;;5014792;28;20046;-78
2022/04/01 03:35:08;;;;;;;7.13;4.30;;;4.40;99.90;;;;;;5015363;28;20044;-78
2022/04/01 03:37:34;;;;;;;4.47;3.67;;;4.40;99.90;;;;;;5015065;28;20029;-78
2022/04/01 03:40:01;;;;;;;4.33;3.90;;;4.40;99.90;;;;;;5014898;28;20471;-78
2022/04/01 03:42:30;;;;;;;4.67;3.93;;;4.30;99.90;;;;;;5014969;28;20462;-78
2022/04/01 03:44:58;;;;;;;4.53;3.93;;;4.30;99.90;;;;;;5015193;28;20023;-78
2022/04/01 03:47:31;;;;;;;5.37;3.80;;;4.20;99.90;;;;;;5014977;28;20029;-78
2022/04/01 03:50:00;;;;;;;4.90;4.23;;;4.20;99.90;;;;;;5015010;28;20124;-78
2022/04/01 03:52:27;;;;;;;4.53;3.53;;;4.20;99.90;;;;;;5013288;28;20025;-78
2022/04/01 03:54:56;;;;;;;4.80;3.93;;;4.10;99.90;;;;;;5012975;28;20076;-78
2022/04/01 03:57:31;;;;;;;4.93;3.70;;;4.10;99.90;;;;;;5010694;28;20022;-78
2022/04/01 03:59:58;;;;;;;5.25;4.07;;;4.10;99.90;;;;;;5002317;28;20395;-78
2022/04/01 04:02:24;;;;;;;4.60;3.80;;;4.00;99.90;;;;;;5032316;28;20533;-77
2022/04/01 04:04:53;;;;;;;4.27;3.87;;;4.00;99.90;;;;;;5032749;28;20148;-78
2022/04/01 04:07:19;;;;;;;4.57;3.60;;;4.00;99.90;;;;;;5027296;28;20097;-78
2022/04/01 04:09:46;;;;;;;4.47;3.90;;;3.90;99.90;;;;;;5032264;28;20040;-78
2022/04/01 04:12:13;;;;;;;4.30;3.70;;;3.90;99.90;;;;;;5023437;28;20057;-78
2022/04/01 04:14:42;;;;;;;3.90;3.20;;;3.80;99.90;;;;;;5024601;28;20025;-78
2022/04/01 04:17:14;;;;;;;4.27;3.50;;;3.90;99.90;;;;;;5027695;28;20075;-77
2022/04/01 04:20:02;;;;;;;3.23;2.93;;;3.80;99.90;;;;;;5024507;28;20068;-77
2022/04/01 04:22:55;;;;;;;3.33;3.00;;;3.80;99.90;;;;;;5029738;28;20025;-78
2022/04/01 04:25:33;;;;;;;3.33;2.80;;;3.80;99.90;;;;;;5009190;28;20431;-77
2022/04/01 04:28:00;;;;;;;2.93;2.63;;;3.70;99.90;;;;;;5024017;28;20381;-77
2022/04/01 04:30:35;;;;;;;3.30;3.00;;;3.60;99.90;;;;;;5019779;28;20063;-77
2022/04/01 04:33:06;;;;;;;4.30;3.00;;;3.60;99.90;;;;;;5020691;28;20048;-78
2022/04/01 04:35:36;;;;;;;6.00;3.13;;;3.60;99.90;;;;;;5026602;28;20474;-78
2022/04/01 04:38:02;;;;;;;3.40;3.07;;;3.40;99.90;;;;;;5025272;28;20017;-78
2022/04/01 04:40:28;;;;;;;2.83;2.60;;;3.40;99.90;;;;;;5026502;28;20029;-78
2022/04/01 04:42:54;;;;;;;3.93;3.03;;;3.30;99.90;;;;;;5024792;28;20022;-78
2022/04/01 04:45:21;;;;;;;5.60;3.10;;;3.20;99.90;;;;;;5009541;28;20021;-78
2022/04/01 04:47:48;;;;;;;3.73;2.90;;;3.10;99.90;;;;;;5038673;28;20048;-78
2022/04/01 04:50:16;;;;;;;3.50;2.57;;;3.10;99.90;;;;;;5022168;28;20037;-78
2022/04/01 04:52:45;;;;;;;3.13;2.73;;;3.00;99.90;;;;;;5024250;28;20026;-77
2022/04/01 04:55:17;;;;;;;3.47;2.50;;;3.10;99.90;;;;;;5023229;28;20032;-77
2022/04/01 04:57:44;;;;;;;3.73;2.70;;;2.90;99.90;;;;;;5020983;28;20025;-77
2022/04/01 05:00:11;;;;;;;3.83;2.50;;;2.90;99.90;;;;;;5029627;28;20017;-77
2022/04/01 05:02:58;;;;;;;2.80;2.50;;;2.90;99.90;;;;;;5030747;28;20048;-78
2022/04/01 05:05:27;;;;;;;3.53;2.70;;;2.80;99.90;;;;;;5031709;28;20056;-78
2022/04/01 05:08:08;;;;;;;3.83;2.90;;;2.80;99.90;;;;;;5022133;28;20025;-77
2022/04/01 05:10:58;;;;;;;3.00;2.60;;;2.70;99.90;;;;;;5011158;28;20033;-78
2022/04/01 05:13:42;;;;;;;4.77;2.77;;;2.60;99.90;;;;;;5019971;28;20022;-76
2022/04/01 05:16:17;;;;;;;2.93;2.60;;;2.60;99.90;;;;;;5027714;28;20031;-76
2022/04/01 05:18:56;;;;;;;3.87;2.70;;;2.50;99.90;;;;;;5012768;28;20030;-76
2022/04/01 05:21:24;;;;;;;3.30;2.60;;;2.50;99.90;;;;;;5012558;28;20018;-77
2022/04/01 05:24:00;;;;;;;3.10;2.50;;;2.40;99.90;;;;;;5028268;28;20025;-79
2022/04/01 05:26:38;;;;;;;3.30;2.80;;;2.40;99.90;;;;;;5015962;28;20056;-78
2022/04/01 05:29:07;;;;;;;3.33;2.60;;;2.40;99.90;;;;;;5027242;28;20021;-78
2022/04/01 05:31:45;;;;;;;2.77;2.47;;;2.30;99.90;;;;;;5010454;28;20383;-78
2022/04/01 05:34:40;;;;;;;3.90;2.33;;;2.30;99.90;;;;;;5011902;28;20026;-78
2022/04/01 05:37:06;;;;;;;3.07;2.70;;;2.20;99.90;;;;;;5011876;28;20453;-78
2022/04/01 05:39:34;;;;;;;3.03;2.73;;;2.20;99.90;;;;;;5011597;28;20494;-78
2022/04/01 05:42:00;;;;;;;3.37;2.30;;;2.10;99.90;;;;;;5011649;28;20018;-78
2022/04/01 05:44:28;;;;;;;4.17;2.63;;;2.10;99.90;;;;;;5019833;28;20030;-77
2022/04/01 05:46:55;;;;;;;2.83;2.40;;;2.10;99.90;;;;;;5010452;28;20348;-77
2022/04/01 05:49:24;;;;;;;3.57;2.80;;;2.10;99.90;;;;;;5014287;28;20386;-77
2022/04/01 05:51:49;;;;;;;2.90;2.40;;;2.00;99.90;;;;;;5012142;28;20168;-78
2022/04/01 05:54:19;;;;;;;3.60;2.60;;;2.00;99.90;;;;;;5011061;28;20108;-78
2022/04/01 05:56:48;;;;;;;3.70;2.60;;;2.00;99.90;;;;;;5010149;28;20017;-78
2022/04/01 05:59:22;;;;;;;4.90;2.40;;;2.00;99.90;;;;;;5004881;28;20030;-77
2022/04/01 06:02:16;;;;;;;3.27;2.93;;;2.00;99.90;;;;;;5011914;28;20029;-78
2022/04/01 06:05:06;;;;;;;3.00;2.50;;;2.00;99.90;;;;;;5022755;28;20030;-78
2022/04/01 06:08:10;;;;;;;4.07;3.27;;;2.00;99.90;;;;;;5019792;28;20072;-78
2022/04/01 06:11:12;;;;;;;4.27;2.33;;;2.00;99.90;;;;;;5021550;28;20406;-78
2022/04/01 06:13:56;;;;;;;4.13;2.53;;;2.10;99.90;;;;;;5025532;28;20068;-77
2022/04/01 06:16:45;;;;;;;3.83;2.63;;;2.10;99.90;;;;;;5022270;28;20030;-78
2022/04/01 06:19:34;;;;;;;4.83;2.70;;;2.10;99.90;;;;;;5014442;28;20120;-77
2022/04/01 06:22:04;;;;;;;3.20;2.67;;;2.10;99.90;;;;;;5010620;28;20022;-78
2022/04/01 06:24:48;;;;;;;4.27;2.63;;;2.10;99.90;;;;;;5016488;28;20022;-78
2022/04/01 06:27:21;;;;;;;3.20;2.43;;;2.10;99.90;;;;;;5009215;28;20022;-77
2022/04/01 06:30:14;;;;;;;3.53;2.60;;;2.10;99.90;;;;;;4991654;28;20289;-77
2022/04/01 06:32:57;;;;;;;3.13;2.40;;;2.10;99.90;;;;;;5012117;28;20069;-78
2022/04/01 06:35:50;;;;;;;3.07;2.60;;;2.20;99.90;;;;;;5025422;28;20465;-77
2022/04/01 06:38:37;;;;;;;3.00;2.33;;;2.20;99.90;;;;;;5014140;28;20061;-78
2022/04/01 06:41:28;;;;;;;2.50;2.17;;;2.10;99.90;;;;;;5008874;28;20029;-78
2022/04/01 06:43:56;;;;;;;3.07;2.20;;;2.20;99.90;;;;;;5010886;28;20042;-78
2022/04/01 06:46:21;;;;;;;2.60;2.10;;;2.20;99.90;;;;;;5011616;28;20032;-78
2022/04/01 06:48:47;;;;;;;3.03;2.13;;;2.20;99.90;;;;;;5010207;28;20453;-78
2022/04/01 06:51:14;;;;;;;3.23;2.30;;;2.20;99.90;;;;;;5011915;28;20079;-78
2022/04/01 06:53:40;;;;;;;2.37;1.87;;;2.20;99.90;;;;;;5011844;28;20662;-78
2022/04/01 06:56:06;;;;;;;2.67;2.07;;;2.20;99.90;;;;;;5010421;28;20060;-78
2022/04/01 06:58:33;;;;;;;5.70;2.20;;;2.30;99.90;;;;;;5020752;28;20125;-78
2022/04/01 07:00:58;;;;;;;2.77;2.00;;;2.20;99.90;;;;;;5009700;28;20026;-78
2022/04/01 07:03:24;;;;;;;2.30;2.10;;;2.30;99.90;;;;;;5010024;28;20033;-78
2022/04/01 07:05:51;;;;;;;3.00;2.07;;;2.30;99.90;;;;;;5011487;28;20026;-78
2022/04/01 07:08:17;;;;;;;2.77;1.77;;;2.30;99.90;;;;;;5012410;28;20038;-80
2022/04/01 07:10:44;;;;;;;2.53;1.80;;;2.40;99.90;;;;;;5013436;28;20104;-78
2022/04/01 07:13:10;;;;;;;3.00;2.30;;;2.40;99.90;;;;;;5011862;28;20034;-78
2022/04/01 07:15:36;;;;;;;2.07;1.70;;;2.40;99.90;;;;;;5011332;28;20036;-78
2022/04/01 07:18:02;;;;;;;2.83;1.60;;;2.50;99.90;;;;;;5011680;28;20382;-78
2022/04/01 07:20:28;;;;;;;2.10;1.53;;;2.50;99.90;;;;;;5011053;28;20029;-78
2022/04/01 07:22:54;;;;;;;2.03;1.70;;;2.50;99.90;;;;;;5011891;28;20083;-78
2022/04/01 07:25:21;;;;;;;2.77;1.80;;;2.50;99.90;;;;;;5020674;28;20083;-78
2022/04/01 07:27:47;;;;;;;2.90;1.70;;;2.50;99.90;;;;;;5016758;28;20441;-79
2022/04/01 07:30:12;;;;;;;2.63;1.87;;;2.50;99.90;;;;;;5012368;28;20018;-79
2022/04/01 07:32:39;;;;;;;4.50;1.83;;;2.50;99.90;;;;;;5011505;28;20049;-80
2022/04/01 07:35:08;;;;;;;2.00;1.50;;;2.50;99.90;;;;;;5010257;28;20437;-80
2022/04/01 07:37:34;;;;;;;2.80;2.10;;;2.50;99.90;;;;;;5009835;28;20072;-80
2022/04/01 07:40:00;;;;;;;2.47;1.73;;;2.50;99.90;;;;;;5009505;28;20038;-80
2022/04/01 07:42:28;;;;;;;1.90;1.50;;;2.50;99.90;;;;;;5020751;28;20035;-79
2022/04/01 07:44:54;;;;;;;1.57;1.47;;;2.50;99.90;;;;;;5030824;28;20490;-80
2022/04/01 07:47:21;;;;;;;1.70;1.43;;;2.50;99.90;;;;;;5010866;28;20056;-80
2022/04/01 07:49:48;;;;;;;2.17;1.70;;;2.40;99.90;;;;;;5010482;28;20021;-79
2022/04/01 07:52:15;;;;;;;4.37;1.83;;;2.50;99.90;;;;;;5026936;28;20434;-79
2022/04/01 07:54:43;;;;;;;2.57;1.53;;;2.50;99.90;;;;;;5029254;28;20030;-80
2022/04/01 07:57:11;;;;;;;2.07;1.57;;;2.40;99.90;;;;;;5021861;28;20083;-79
2022/04/01 07:59:37;;;;;;;4.43;1.70;;;2.40;99.90;;;;;;5012295;28;20037;-79
2022/04/01 08:02:04;;;;;;;2.33;1.43;;;2.50;99.90;;;;;;5011897;28;20026;-79
2022/04/01 08:04:29;;;;;;;1.67;1.50;;;2.50;99.90;;;;;;5009964;28;20426;-80
2022/04/01 08:06:55;;;;;;;2.17;1.50;;;2.50;99.90;;;;;;5011365;28;20033;-79
2022/04/01 08:09:21;;;;;;;2.10;1.37;;;2.60;99.90;;;;;;5011506;28;20072;-79
2022/04/01 08:11:47;;;;;;;3.33;1.50;;;2.50;99.90;;;;;;5011603;28;20026;-78
2022/04/01 08:14:13;;;;;;;1.50;1.30;;;2.50;99.90;;;;;;5011048;28;20036;-79
2022/04/01 08:16:39;;;;;;;2.07;1.60;;;2.50;99.90;;;;;;5018527;28;20038;-79
2022/04/01 08:19:05;;;;;;;1.83;1.47;;;2.50;99.90;;;;;;5009562;28;20406;-79
2022/04/01 08:21:32;;;;;;;2.27;1.77;;;2.50;99.90;;;;;;5009751;28;20474;-79
2022/04/01 08:23:58;;;;;;;1.77;1.50;;;2.50;99.90;;;;;;5011542;28;20136;-79
2022/04/01 08:26:25;;;;;;;5.17;1.60;;;2.60;99.90;;;;;;5015863;28;20099;-79
2022/04/01 08:28:51;;;;;;;1.77;1.50;;;2.60;99.90;;;;;;5018681;28;20037;-79
2022/04/01 08:31:17;;;;;;;2.40;1.40;;;2.60;99.90;;;;;;5010105;28;20049;-79
2022/04/01 08:33:44;;;;;;;2.10;1.67;;;2.60;99.90;;;;;;5024443;28;20056;-79
2022/04/01 08:36:10;;;;;;;2.50;1.70;;;2.70;99.90;;;;;;5009384;28;20036;-79
2022/04/01 08:38:36;;;;;;;1.40;1.20;;;2.70;99.90;;;;;;5009447;28;20033;-79
2022/04/01 08:41:02;;;;;;;1.93;1.30;;;2.70;99.90;;;;;;5002497;28;20054;-77
2022/04/01 08:43:33;;;;;;;1.97;1.40;;;2.70;99.90;;;;;;5013168;28;20037;-77
2022/04/01 08:46:03;;;;;;;1.50;1.30;;;2.70;99.90;;;;;;5013446;28;20022;-77
2022/04/01 08:48:29;;;;;;;2.47;1.50;;;2.80;99.90;;;;;;5010249;28;20429;-77
2022/04/01 08:50:55;;;;;;;1.47;1.30;;;2.90;99.90;;;;;;5002230;28;21368;-77
2022/04/01 08:53:21;;;;;;;2.40;1.00;;;2.90;99.90;;;;;;5015689;28;20121;-80
2022/04/01 08:55:52;;;;;;;1.97;1.10;;;3.00;99.90;;;;;;5011470;28;20104;-77
2022/04/01 08:58:19;;;;;;;2.17;1.30;;;3.00;99.90;;;;;;5008574;28;21589;-80
2022/04/01 09:00:50;;;;;;;5.13;1.30;;;3.10;99.90;;;;;;5009604;28;20033;-80
2022/04/01 09:03:17;;;;;;;1.40;1.10;;;3.20;99.90;;;;;;5011398;28;20833;-80
2022/04/01 09:05:51;;;;;;;1.50;1.30;;;3.20;99.90;;;;;;5011465;28;20025;-80
2022/04/01 09:08:23;;;;;;;1.43;1.10;;;3.30;99.90;;;;;;5000665;28;20030;-80
2022/04/01 09:11:01;;;;;;;1.43;1.20;;;3.30;99.90;;;;;;5004636;28;20030;-78
2022/04/01 09:13:29;;;;;;;2.47;1.10;;;3.30;99.90;;;;;;5009905;28;20021;-78
2022/04/01 09:15:55;;;;;;;2.10;1.30;;;3.50;99.90;;;;;;5021443;28;20061;-78
2022/04/01 09:18:35;;;;;;;1.70;1.10;;;3.60;99.90;;;;;;5018234;28;20057;-78
2022/04/01 09:21:01;;;;;;;1.47;1.00;;;3.60;99.90;;;;;;5019237;28;20022;-78
2022/04/01 09:23:27;;;;;;;1.23;1.10;;;3.70;99.90;;;;;;5009658;28;20535;-78
2022/04/01 09:25:54;;;;;;;2.03;1.53;;;3.70;99.90;;;;;;5023306;28;20093;-78
2022/04/01 09:28:26;;;;;;;1.90;1.37;;;3.70;99.90;;;;;;5011870;28;20438;-78
2022/04/01 09:31:08;;;;;;;1.10;0.90;;;3.70;99.90;;;;;;5009227;28;20753;-78
2022/04/01 09:33:54;;;;;;;1.93;1.20;;;3.80;99.90;;;;;;5009564;28;20117;-79
2022/04/01 09:36:24;;;;;;;1.20;1.00;;;3.80;99.90;;;;;;5008887;28;20112;-79
2022/04/01 09:39:06;;;;;;;1.20;1.03;;;3.80;99.90;;;;;;5011396;28;20049;-78
2022/04/01 09:41:36;;;;;;;2.93;1.10;;;3.90;99.90;;;;;;5017950;28;20097;-81
2022/04/01 09:44:15;;;;;;;2.60;1.23;;;4.00;99.90;;;;;;5009792;28;20045;-81
2022/04/01 09:46:54;;;;;;;1.90;1.20;;;4.10;99.90;;;;;;5012906;28;20032;-80
2022/04/01 09:49:39;;;;;;;2.70;1.13;;;4.10;99.90;;;;;;5011022;28;20025;-80
2022/04/01 09:52:13;;;;;;;1.40;1.30;;;4.10;99.90;;;;;;5014989;28;20033;-80
2022/04/01 09:54:50;;;;;;;;;;;4.10;99.90;;;;;;5028673;28;20096;-80
2022/04/01 09:57:18;;;;;;;1.45;1.20;;;4.00;99.90;;;;;;5012001;28;20028;-78
2022/04/01 09:59:45;;;;;;;1.80;1.03;;;3.90;99.90;;;;;;5007863;28;20380;-78
2022/04/01 10:02:11;;;;;;;1.60;1.20;;;3.80;99.90;;;;;;5011224;28;20105;-79
2022/04/01 10:04:36;;;;;;;1.20;1.10;;;3.90;99.90;;;;;;5010904;28;20110;-79
2022/04/01 10:07:03;;;;;;;1.27;1.10;;;3.90;99.90;;;;;;5026098;28;20033;-78
2022/04/01 10:09:30;;;;;;;1.07;1.00;;;4.00;99.90;;;;;;5010696;28;20033;-80
2022/04/01 10:12:06;;;;;;;1.53;1.00;;;3.80;99.90;;;;;;5016906;28;20033;-80
2022/04/01 10:14:32;;;;;;;1.50;1.07;;;3.90;99.90;;;;;;5010476;28;20525;-80
2022/04/01 10:17:01;;;;;;;1.33;1.00;;;3.90;99.90;;;;;;5023642;28;20025;-81
2022/04/01 10:19:29;;;;;;;1.57;1.10;;;3.90;99.90;;;;;;5018221;28;20768;-80
2022/04/01 10:21:59;;;;;;;1.30;1.20;;;3.90;99.90;;;;;;5009712;28;20476;-80
2022/04/01 10:24:36;;;;;;;1.27;0.97;;;3.90;99.90;;;;;;5010914;28;20096;-80
2022/04/01 10:27:35;;;;;;;1.20;1.00;;;3.80;99.90;;;;;;5011083;28;20096;-80
2022/04/01 10:30:00;;;;;;;1.60;1.23;;;3.80;99.90;;;;;;4998405;28;20042;-80
2022/04/01 10:32:30;;;;;;;1.77;1.00;;;3.80;99.90;;;;;;5009157;28;20057;-81
2022/04/01 10:34:58;;;;;;;1.97;1.20;;;3.80;99.90;;;;;;5009202;28;20034;-80
2022/04/01 10:37:26;;;;;;;1.70;1.10;;;3.80;99.90;;;;;;5009458;28;20133;-80
2022/04/01 10:39:58;;;;;;;1.83;1.17;;;3.80;99.90;;;;;;5009739;28;20025;-80
2022/04/01 10:42:35;;;;;;;3.40;1.43;;;3.70;99.90;;;;;;5012057;28;20022;-79
2022/04/01 10:45:04;;;;;;;2.37;1.67;;;3.80;99.90;;;;;;5001219;28;20022;-80
2022/04/01 10:53:38;;;;;;;1.23;1.03;;;4.00;99.90;;;;;;5007788;28;20032;-80
2022/04/01 10:56:22;;;;;;;1.47;1.17;;;4.00;99.90;;;;;;5002996;28;20487;-80
2022/04/01 10:59:03;;;;;;;2.40;1.20;;;4.00;99.90;;;;;;5005216;28;20355;-79
2022/04/01 11:01:30;;;;;;;1.30;1.03;;;3.90;99.90;;;;;;5007102;28;20382;-79
2022/04/01 11:04:22;;;;;;;1.70;1.30;;;3.80;99.90;;;;;;5007058;28;20494;-79
2022/04/01 11:06:52;;;;;;;1.60;1.20;;;3.80;99.90;;;;;;5008157;28;20030;-78
2022/04/01 11:09:40;;;;;;;1.40;1.20;;;3.80;99.90;;;;;;5008796;28;20091;-78
2022/04/01 11:12:15;;;;;;;2.33;1.67;;;3.80;99.90;;;;;;5010743;28;20037;-78
2022/04/01 11:15:11;;;;;;;2.50;1.55;;;3.90;99.90;;;;;;5014620;28;20055;-78
2022/04/01 11:17:37;;;;;;;3.60;1.70;;;3.90;99.90;;;;;;5013395;28;20029;-79
2022/04/01 11:20:14;;;;;;;2.10;1.50;;;3.80;99.90;;;;;;5010022;28;20045;-79
2022/04/01 11:22:44;;;;;;;1.83;1.33;;;3.80;99.90;;;;;;5008476;28;20033;-79
2022/04/01 11:25:35;;;;;;;2.77;1.80;;;3.90;99.90;;;;;;5008900;28;20036;-79
2022/04/01 11:28:15;;;;;;;1.60;1.20;;;3.90;99.90;;;;;;5004096;28;20022;-79
2022/04/01 11:31:02;;;;;;;1.70;1.40;;;4.00;99.90;;;;;;5009823;28;20041;-79
2022/04/01 11:33:27;;;;;;;1.50;1.35;;;4.00;99.90;;;;;;5009416;28;20046;-79
2022/04/01 11:35:55;;;;;;;1.90;1.70;;;4.00;99.90;;;;;;5012330;28;20026;-79
2022/04/01 11:38:23;;;;;;;3.17;1.90;;;4.10;99.90;;;;;;5012318;28;20026;-79
2022/04/01 11:40:53;;;;;;;2.40;1.70;;;4.20;99.90;;;;;;5010355;28;20037;-79
2022/04/01 11:43:20;;;;;;;2.17;1.77;;;4.10;99.90;;;;;;5011347;28;20033;-80
2022/04/01 11:45:57;;;;;;;2.27;1.90;;;4.30;99.90;;;;;;5009638;28;20041;-79
2022/04/01 11:48:36;;;;;;;3.30;2.27;;;4.20;99.90;;;;;;5008967;28;20124;-79
2022/04/01 11:51:10;;;;;;;1.90;1.70;;;4.20;99.90;;;;;;5008242;28;20442;-80
2022/04/01 11:53:43;;;;;;;1.97;1.50;;;4.30;99.90;;;;;;5009928;28;20053;-80
2022/04/01 11:56:10;;;;;;;1.80;1.50;;;4.40;99.90;;;;;;5001180;28;20022;-79
2022/04/01 11:58:54;;;;;;;2.30;1.97;;;4.40;99.90;;;;;;5008109;28;20034;-80
2022/04/01 12:01:31;;;;;;;2.63;1.60;;;4.50;99.90;;;;;;4990683;28;20026;-79
2022/04/01 12:04:14;;;;;;;2.03;1.60;;;4.50;99.90;;;;;;4990497;28;20558;-79
2022/04/01 12:09:30;;;;;;;1.57;1.47;;;4.50;99.90;;;;;;5010949;28;20077;-78
2022/04/01 12:11:58;;;;;;;1.67;1.30;;;4.50;99.90;;;;;;5008679;28;20561;-78
2022/04/01 12:14:25;;;;;;;1.87;1.50;;;4.50;99.90;;;;;;5010122;28;20037;-78
2022/04/01 12:16:51;;;;;;;1.53;1.20;;;4.40;99.90;;;;;;5008918;28;20034;-78
2022/04/01 12:19:20;;;;;;;1.40;1.20;;;4.40;99.90;;;;;;5009637;28;20037;-80
2022/04/01 12:21:56;;;;;;;1.67;1.40;;;4.40;99.90;;;;;;5009200;28;20622;-79
2022/04/01 12:24:22;;;;;;;1.97;1.43;;;4.30;99.90;;;;;;5009635;28;20834;-79
2022/04/01 12:26:48;;;;;;;1.30;1.20;;;4.30;99.90;;;;;;5009471;28;20021;-80
2022/04/01 12:29:19;;;;;;;3.50;1.50;;;4.30;99.90;;;;;;5024740;28;20120;-79
2022/04/01 12:32:03;;;;;;;1.30;1.20;;;4.20;99.90;;;;;;5009168;28;20057;-80
2022/04/01 12:34:30;;;;;;;1.30;1.20;;;4.30;99.90;;;;;;5009525;28;20036;-79
2022/04/01 12:37:01;;;;;;;1.53;1.20;;;4.20;99.90;;;;;;5009629;28;20135;-80
2022/04/01 12:39:29;;;;;;;2.10;1.40;;;4.10;99.90;;;;;;5009058;28;20025;-79
2022/04/01 12:42:22;;;;;;;1.87;1.40;;;4.10;99.90;;;;;;5009315;28;20033;-79
2022/04/01 12:44:47;;;;;;;1.27;1.10;;;4.00;99.90;;;;;;5009281;28;20210;-79
2022/04/01 12:47:26;;;;;;;1.90;1.40;;;4.00;99.90;;;;;;5011029;28;20426;-79
2022/04/01 12:49:52;;;;;;;2.10;1.70;;;3.90;99.90;;;;;;5021689;28;20022;-79
2022/04/01 12:52:19;;;;;;;1.53;1.20;;;3.90;99.90;;;;;;5016644;28;20060;-78
2022/04/01 12:55:00;;;;;;;1.53;1.30;;;4.00;99.90;;;;;;5028035;28;20025;-80
2022/04/01 12:57:26;;;;;;;1.33;1.17;;;3.90;99.90;;;;;;5019833;28;20426;-80
2022/04/01 12:59:51;;;;;;;3.33;1.10;;;4.00;99.90;;;;;;5001340;28;20038;-80
2022/04/01 13:02:19;;;;;;;2.00;1.43;;;3.90;99.90;;;;;;5017280;28;20022;-80
2022/04/01 13:04:49;;;;;;;1.47;1.23;;;3.80;99.90;;;;;;5009448;28;20032;-81
2022/04/01 13:07:32;;;;;;;1.30;1.10;;;3.90;99.90;;;;;;5008623;28;20031;-80
2022/04/01 13:10:00;;;;;;;1.33;1.20;;;4.00;99.90;;;;;;5009855;28;20041;-80
2022/04/01 13:12:31;;;;;;;2.07;1.23;;;4.00;99.90;;;;;;5008266;28;20025;-78
2022/04/01 13:15:08;;;;;;;1.43;1.30;;;4.00;99.90;;;;;;5008748;28;20032;-79
2022/04/01 13:17:55;;;;;;;1.50;1.30;;;4.00;99.90;;;;;;5009136;28;20030;-78
2022/04/01 13:20:24;;;;;;;1.87;1.50;;;4.10;99.90;;;;;;5008589;28;20030;-78
2022/04/01 13:22:50;;;;;;;1.93;1.30;;;4.10;99.90;;;;;;4996739;28;20037;-78
2022/04/01 13:25:16;;;;;;;1.13;1.03;;;4.10;99.90;;;;;;5008272;28;20034;-79
2022/04/01 13:27:43;;;;;;;1.53;1.20;;;4.10;99.90;;;;;;5007341;28;20029;-79
2022/04/01 13:30:11;;;;;;;1.73;1.30;;;4.20;99.90;;;;;;5008664;28;20038;-78